Time;durP1;ratioP1;P1;durP2;ratioP2;P2;SDS_P1;SDS_P2;PMS_P1;PMS_P2;Temp;Humidity;BMP_temperature;BMP_pressure;BME280_temperature;BME280_humidity;BME280_pressure;Samples;Min_cycle;Max_cycle;Signal;HPM_P1;HPM_P2
2024/01/24 00:01:56;;;;;;;4.00;2.38;;;;;;;4.17;47.96;99790.78;5086350;28;20047;-72
2024/01/24 00:04:22;;;;;;;3.72;2.35;;;;;;;4.18;47.96;99792.47;5052454;28;20406;-72
2024/01/24 00:06:48;;;;;;;4.43;2.60;;;;;;;4.11;47.87;99789.25;5084879;28;20026;-72
2024/01/24 00:09:14;;;;;;;3.92;2.47;;;;;;;4.17;48.08;99803.69;5053565;28;20027;-73
2024/01/24 00:11:39;;;;;;;4.20;2.47;;;;;;;4.19;47.87;99806.22;5066960;28;20036;-73
2024/01/24 00:14:05;;;;;;;3.45;2.10;;;;;;;4.12;47.77;99797.84;5076812;28;20056;-72
2024/01/24 00:16:30;;;;;;;4.57;2.83;;;;;;;4.08;48.28;99789.34;5059747;28;20471;-72
2024/01/24 00:18:56;;;;;;;5.38;2.30;;;;;;;4.12;48.01;99801.25;5060217;28;20060;-72
2024/01/24 00:21:21;;;;;;;6.35;2.60;;;;;;;4.09;47.93;99792.78;5094673;28;20028;-72
2024/01/24 00:23:47;;;;;;;5.78;2.38;;;;;;;4.06;47.86;99798.03;5059647;28;20035;-72
2024/01/24 00:26:12;;;;;;;6.18;2.85;;;;;;;4.06;48.02;99796.28;5059755;28;20078;-73
2024/01/24 00:28:38;;;;;;;4.95;2.92;;;;;;;4.04;48.19;99792.09;5076612;28;20462;-72
2024/01/24 00:31:03;;;;;;;4.47;2.58;;;;;;;4.01;47.81;99790.44;5075820;28;20068;-73
2024/01/24 00:33:31;;;;;;;5.15;2.85;;;;;;;4.03;47.95;99792.97;5059472;28;20505;-72
2024/01/24 00:35:57;;;;;;;4.47;2.80;;;;;;;4.03;47.93;99787.78;5076576;28;20052;-73
2024/01/24 00:38:22;;;;;;;5.38;2.80;;;;;;;4.08;48.32;99798.81;5059635;28;20477;-72
2024/01/24 00:40:48;;;;;;;4.70;2.83;;;;;;;4.02;47.65;99789.53;5076722;28;20032;-72
2024/01/24 00:43:13;;;;;;;5.20;3.08;;;;;;;4.07;47.94;99802.31;5043038;28;20059;-72
2024/01/24 00:45:39;;;;;;;6.28;2.70;;;;;;;4.02;47.61;99796.44;5076015;28;20028;-72
2024/01/24 00:48:06;;;;;;;4.85;2.60;;;;;;;4.02;47.44;99796.44;5041903;28;20040;-72
2024/01/24 00:50:32;;;;;;;4.55;2.60;;;;;;;4.05;47.82;99797.19;5059247;28;20059;-72
2024/01/24 00:53:09;;;;;;;6.22;3.05;;;;;;;4.07;47.99;99810.06;5058684;28;20040;-73
2024/01/24 00:55:34;;;;;;;7.07;3.60;;;;;;;4.05;47.77;99806.66;5060759;28;20031;-73
2024/01/24 00:58:00;;;;;;;7.20;3.90;;;;;;;3.98;47.41;99796.56;5075621;28;20078;-72
2024/01/24 01:00:25;;;;;;;7.38;4.25;;;;;;;4.01;47.57;99808.50;5058992;28;20538;-73
2024/01/24 01:02:51;;;;;;;6.25;4.13;;;;;;;4.00;47.78;99809.44;5059088;28;20491;-72
2024/01/24 01:05:16;;;;;;;7.72;3.90;;;;;;;3.95;47.82;99804.41;5075791;28;20036;-73
2024/01/24 01:07:42;;;;;;;5.40;3.53;;;;;;;3.89;48.02;99794.28;5092907;28;20036;-72
2024/01/24 01:10:11;;;;;;;5.80;3.50;;;;;;;3.96;47.71;99813.00;5075417;28;20024;-72
2024/01/24 01:12:36;;;;;;;;;;;;;;;3.94;47.78;99813.03;5059639;28;20023;-71
2024/01/24 01:15:02;;;;;;;5.32;3.20;;;;;;;3.90;47.82;99806.28;5075631;28;19915;-73
2024/01/24 01:17:27;;;;;;;5.40;3.22;;;;;;;3.84;47.66;99797.88;5058818;28;20024;-72
2024/01/24 01:19:53;;;;;;;4.45;2.60;;;;;;;3.87;47.76;99800.38;5075733;28;20403;-72
2024/01/24 01:22:19;;;;;;;5.35;3.30;;;;;;;3.86;47.79;99804.69;5075875;28;20093;-71
2024/01/24 01:24:45;;;;;;;6.10;2.85;;;;;;;3.81;47.78;99793.63;5058387;28;20036;-71
2024/01/24 01:27:11;;;;;;;4.60;2.80;;;;;;;3.85;47.67;99805.56;5058711;28;20117;-72
2024/01/24 01:29:36;;;;;;;5.38;3.15;;;;;;;3.86;47.67;99806.41;5058349;28;20036;-72
2024/01/24 01:32:02;;;;;;;4.82;2.88;;;;;;;3.83;47.70;99797.03;5092909;28;20039;-72
2024/01/24 01:34:28;;;;;;;6.10;3.00;;;;;;;3.82;47.71;99805.69;5075631;28;20039;-71
2024/01/24 01:36:53;;;;;;;4.30;2.88;;;;;;;3.84;47.84;99797.88;5041633;28;20509;-73
2024/01/24 01:39:19;;;;;;;5.75;3.28;;;;;;;3.84;47.59;99800.47;5058272;28;20036;-72
2024/01/24 01:41:48;;;;;;;3.95;2.67;;;;;;;3.83;47.47;99797.03;5041920;28;20035;-72
2024/01/24 01:44:15;;;;;;;4.50;2.65;;;;;;;3.78;47.69;99788.59;5074812;28;20036;-72
2024/01/24 01:46:41;;;;;;;4.85;3.00;;;;;;;3.77;47.29;99782.56;5058154;28;20027;-72
2024/01/24 01:49:06;;;;;;;4.47;2.80;;;;;;;3.83;47.42;99786.72;5075155;28;20080;-71
2024/01/24 01:51:32;;;;;;;5.82;2.83;;;;;;;3.83;47.56;99797.03;5058165;28;20036;-72
2024/01/24 01:53:57;;;;;;;5.90;3.15;;;;;;;3.85;47.65;99792.66;5058022;28;20406;-71
2024/01/24 01:56:22;;;;;;;5.18;2.85;;;;;;;3.85;47.23;99790.09;5074419;28;20044;-71
2024/01/24 01:58:48;;;;;;;5.30;2.65;;;;;;;3.85;47.55;99791.81;5058171;28;20498;-72
2024/01/24 02:01:14;;;;;;;5.60;3.20;;;;;;;3.76;47.47;99774.88;5074129;28;20032;-73
2024/01/24 02:03:39;;;;;;;4.57;3.13;;;;;;;3.81;47.26;99793.63;5058273;28;20452;-72
2024/01/24 02:06:05;;;;;;;5.22;3.10;;;;;;;3.78;47.61;99793.78;5057749;28;20483;-72
2024/01/24 02:08:32;;;;;;;6.13;3.10;;;;;;;3.76;47.35;99798.13;5057303;28;20034;-72
2024/01/24 02:10:58;;;;;;;5.78;3.13;;;;;;;3.75;47.25;99799.88;5074638;28;20507;-72
2024/01/24 02:13:28;;;;;;;5.80;2.88;;;;;;;3.72;47.58;99789.63;5058135;28;20036;-72
2024/01/24 02:15:53;;;;;;;4.78;3.17;;;;;;;3.66;47.70;99792.41;5057071;28;20109;-72
2024/01/24 02:18:19;;;;;;;5.53;2.97;;;;;;;3.71;47.81;99802.59;5057274;28;20496;-72
2024/01/24 02:20:44;;;;;;;4.85;2.97;;;;;;;3.68;47.64;99797.50;5057179;28;20040;-72
2024/01/24 02:23:10;;;;;;;5.10;3.20;;;;;;;3.66;47.63;99805.31;5057582;28;20028;-71
2024/01/24 02:25:35;;;;;;;5.72;2.75;;;;;;;3.66;47.46;99794.16;5057979;28;20031;-72
2024/01/24 02:28:01;;;;;;;6.57;2.92;;;;;;;3.65;47.83;99800.19;5074329;28;20032;-72
2024/01/24 02:30:26;;;;;;;5.43;3.25;;;;;;;3.63;47.65;99805.41;5057201;28;20402;-72
2024/01/24 02:32:52;;;;;;;5.25;3.35;;;;;;;3.58;47.61;99791.78;5074028;28;20036;-72
2024/01/24 02:35:17;;;;;;;6.05;3.40;;;;;;;3.65;47.59;99806.19;5057591;28;20494;-73
2024/01/24 02:37:43;;;;;;;5.05;3.05;;;;;;;3.63;47.64;99805.41;5074106;28;20031;-73
2024/01/24 02:40:08;;;;;;;6.93;3.25;;;;;;;3.61;47.93;99804.63;5057425;28;20055;-72
2024/01/24 02:42:34;;;;;;;7.10;3.05;;;;;;;3.55;47.91;99802.22;5074552;28;20032;-72
2024/01/24 02:44:59;;;;;;;4.63;3.15;;;;;;;3.54;47.62;99793.63;5074238;28;20027;-71
2024/01/24 02:47:25;;;;;;;6.07;3.22;;;;;;;3.58;47.76;99808.13;5074063;28;20036;-73
2024/01/24 02:49:50;;;;;;;6.70;3.30;;;;;;;3.52;47.72;99803.13;5074102;28;20421;-71
2024/01/24 02:52:16;;;;;;;5.93;3.17;;;;;;;3.53;47.42;99799.69;5057282;28;20082;-72
2024/01/24 02:54:42;;;;;;;6.55;3.55;;;;;;;3.55;47.89;99809.97;5074069;28;20031;-72
2024/01/24 02:57:07;;;;;;;7.05;3.40;;;;;;;3.49;47.58;99797.22;5057674;28;20081;-72
2024/01/24 02:59:33;;;;;;;6.78;3.40;;;;;;;3.50;47.44;99796.34;5074032;28;20032;-72
2024/01/24 03:01:59;;;;;;;5.40;3.10;;;;;;;3.54;47.26;99805.69;5074059;28;20062;-71
2024/01/24 03:04:24;;;;;;;5.95;3.30;;;;;;;3.53;47.36;99809.16;5057397;28;20036;-72
2024/01/24 03:06:50;;;;;;;5.18;3.40;;;;;;;3.50;47.88;99807.50;5041132;28;20028;-72
2024/01/24 03:09:15;;;;;;;6.60;3.70;;;;;;;3.50;48.07;99809.25;5039929;28;20479;-72
2024/01/24 03:11:41;;;;;;;9.30;4.30;;;;;;;3.50;47.94;99806.69;5040291;28;20291;-71
2024/01/24 03:14:06;;;;;;;7.32;4.30;;;;;;;3.49;47.94;99808.41;5040559;28;20063;-71
2024/01/24 03:16:32;;;;;;;7.97;4.00;;;;;;;3.44;48.05;99797.38;5057703;28;20032;-72
2024/01/24 03:18:58;;;;;;;11.27;4.88;;;;;;;3.44;47.90;99795.63;5057460;28;20090;-72
2024/01/24 03:21:23;;;;;;;8.40;4.50;;;;;;;3.48;47.81;99801.56;5074212;28;20032;-72
2024/01/24 03:23:49;;;;;;;7.22;4.05;;;;;;;3.50;47.88;99802.34;5057101;28;20032;-72
2024/01/24 03:26:15;;;;;;;9.57;4.63;;;;;;;3.47;47.90;99794.69;5040669;28;20032;-71
2024/01/24 03:28:40;;;;;;;7.25;4.10;;;;;;;3.46;48.10;99781.84;5057084;28;20032;-73
2024/01/24 03:31:06;;;;;;;6.25;4.57;;;;;;;3.43;48.37;99793.94;5060680;28;20101;-72
2024/01/24 03:33:31;;;;;;;8.25;4.32;;;;;;;3.50;47.98;99801.50;5060759;28;20372;-72
2024/01/24 03:35:57;;;;;;;6.72;3.92;;;;;;;3.49;48.13;99800.66;5077387;28;20085;-71
2024/01/24 03:38:22;;;;;;;8.23;4.18;;;;;;;3.47;48.13;99796.44;5076507;28;20040;-71
2024/01/24 03:40:48;;;;;;;6.00;4.10;;;;;;;3.49;48.26;99802.41;5060609;28;20032;-71
2024/01/24 03:43:13;;;;;;;6.55;4.00;;;;;;;3.34;48.25;99775.31;5060550;28;20032;-72
2024/01/24 03:45:39;;;;;;;5.82;3.97;;;;;;;3.48;48.29;99806.72;5095145;28;20066;-72
2024/01/24 03:48:07;;;;;;;7.78;4.30;;;;;;;3.46;47.97;99790.41;5060505;28;20034;-73
2024/01/24 03:50:33;;;;;;;7.05;4.55;;;;;;;3.48;48.57;99787.78;5044323;28;20044;-72
2024/01/24 03:53:00;;;;;;;8.73;4.53;;;;;;;3.49;48.32;99789.50;5060232;28;20035;-71
2024/01/24 03:55:26;;;;;;;7.80;4.32;;;;;;;3.50;48.32;99797.19;5060357;28;20388;-71
2024/01/24 03:57:51;;;;;;;9.55;5.25;;;;;;;3.55;48.47;99800.47;5094848;28;20028;-71
2024/01/24 04:00:17;;;;;;;8.82;4.53;;;;;;;3.59;48.52;99804.66;5095101;28;20032;-71
2024/01/24 04:02:42;;;;;;;7.70;4.80;;;;;;;3.60;48.60;99808.06;5095269;28;20035;-73
2024/01/24 04:05:08;;;;;;;7.53;4.72;;;;;;;3.55;48.40;99802.22;5076648;28;20032;-72
2024/01/24 04:07:34;;;;;;;7.75;4.80;;;;;;;3.56;48.27;99799.59;5060344;28;20026;-72
2024/01/24 04:09:59;;;;;;;8.25;4.57;;;;;;;3.58;48.36;99802.97;5060160;28;20028;-71
2024/01/24 04:12:25;;;;;;;11.25;5.13;;;;;;;3.63;48.61;99813.16;5059420;28;20518;-71
2024/01/24 04:14:51;;;;;;;7.13;4.20;;;;;;;3.60;48.70;99808.91;5043134;28;20040;-71
2024/01/24 04:17:16;;;;;;;8.80;4.68;;;;;;;3.61;48.49;99814.94;5075958;28;20039;-72
2024/01/24 04:19:41;;;;;;;9.05;4.97;;;;;;;3.60;48.51;99820.97;5076637;28;20032;-71
2024/01/24 04:22:10;;;;;;;8.85;4.78;;;;;;;3.59;48.87;99811.53;5059859;28;20028;-72
2024/01/24 04:24:35;;;;;;;8.45;5.03;;;;;;;3.65;48.67;99820.84;5076884;28;20494;-71
2024/01/24 04:27:01;;;;;;;8.85;5.18;;;;;;;3.64;48.83;99830.34;5076439;28;20039;-72
2024/01/24 04:29:26;;;;;;;8.63;4.53;;;;;;;3.59;48.94;99814.13;5094413;28;20036;-72
2024/01/24 04:31:52;;;;;;;7.90;4.85;;;;;;;3.65;49.00;99820.84;5059365;28;20111;-72
2024/01/24 04:34:17;;;;;;;6.72;4.68;;;;;;;3.64;48.71;99827.75;5060308;28;20032;-72
2024/01/24 04:36:46;;;;;;;9.60;4.57;;;;;;;3.57;48.95;99824.53;5058440;28;20024;-72
2024/01/24 04:39:12;;;;;;;8.98;4.65;;;;;;;3.52;49.07;99817.78;5060324;28;20463;-72
2024/01/24 04:41:37;;;;;;;7.30;4.20;;;;;;;3.55;48.85;99835.78;5057391;28;20127;-72
2024/01/24 04:44:03;;;;;;;6.90;4.07;;;;;;;3.60;49.20;99846.81;5042827;28;20043;-71
2024/01/24 04:46:29;;;;;;;8.65;4.63;;;;;;;3.59;49.29;99850.25;5058464;28;20032;-73
2024/01/24 04:48:54;;;;;;;6.45;4.07;;;;;;;3.71;57.23;99834.41;5059172;28;20117;-75
2024/01/24 04:51:21;;;;;;;6.07;3.85;;;;;;;3.78;54.52;99853.19;5042820;28;20454;-74
2024/01/24 04:53:47;;;;;;;7.18;3.88;;;;;;;4.10;62.97;99851.31;5082511;28;20111;-77
2024/01/24 04:56:12;;;;;;;7.97;4.28;;;;;;;4.23;60.78;99854.34;5045204;28;20024;-76
2024/01/24 04:58:40;;;;;;;7.60;3.85;;;;;;;4.19;59.21;99860.50;5058960;28;20031;-74
2024/01/24 05:01:06;;;;;;;12.55;4.57;;;;;;;4.47;66.53;99875.97;5077061;28;20084;-81
2024/01/24 05:03:32;;;;;;;7.95;3.33;;;;;;;5.43;73.97;99871.75;5059223;28;20043;-80
2024/01/24 05:05:57;;;;;;;9.88;3.60;;;;;;;5.59;67.67;99868.59;5042740;28;20115;-79
2024/01/24 05:08:23;;;;;;;7.38;3.30;;;;;;;5.70;68.28;99870.78;5043935;28;20249;-76
2024/01/24 05:10:48;;;;;;;6.70;3.75;;;;;;;5.72;64.51;99877.56;5060473;28;20051;-80
2024/01/24 05:13:14;;;;;;;7.88;4.00;;;;;;;5.57;61.06;99881.59;5044221;28;20044;-80
2024/01/24 05:15:39;;;;;;;9.52;4.13;;;;;;;5.42;59.72;99879.56;5059062;28;20028;-80
2024/01/24 05:18:05;;;;;;;6.88;3.83;;;;;;;5.34;64.19;99864.31;5058903;28;20063;-83
2024/01/24 05:20:31;;;;;;;9.73;4.38;;;;;;;5.28;60.69;99889.59;5058851;28;20020;-79
2024/01/24 05:22:56;;;;;;;9.93;4.70;;;;;;;5.15;60.27;99889.19;5058576;28;20090;-81
2024/01/24 05:25:22;;;;;;;8.35;5.07;;;;;;;4.98;59.76;99897.53;5058296;28;20047;-71
2024/01/24 05:27:47;;;;;;;14.07;4.93;;;;;;;4.83;59.03;99894.56;5058024;28;20035;-70
2024/01/24 05:30:13;;;;;;;11.45;5.70;;;;;;;4.71;59.03;99897.56;5058462;28;20039;-77
2024/01/24 05:32:38;;;;;;;10.05;5.72;;;;;;;4.56;58.91;99906.69;5042072;28;20111;-74
2024/01/24 05:35:04;;;;;;;9.80;5.38;;;;;;;4.43;59.24;99902.81;5041494;28;20063;-74
2024/01/24 05:37:30;;;;;;;10.98;6.53;;;;;;;4.36;58.46;99909.91;5057864;28;20036;-73
2024/01/24 05:39:56;;;;;;;12.38;6.18;;;;;;;4.28;58.74;99911.91;5074696;28;20020;-72
2024/01/24 05:42:22;;;;;;;11.65;6.22;;;;;;;4.29;58.26;99918.78;5041423;28;20526;-74
2024/01/24 05:44:48;;;;;;;10.30;5.93;;;;;;;4.23;57.93;99911.22;5041865;28;20134;-73
2024/01/24 05:47:14;;;;;;;10.10;6.35;;;;;;;4.27;57.51;99916.25;5040671;28;20518;-75
2024/01/24 05:49:39;;;;;;;10.70;6.22;;;;;;;4.28;57.26;99906.75;5057638;28;20083;-75
2024/01/24 05:52:05;;;;;;;11.00;6.57;;;;;;;4.28;56.87;99910.16;5092359;28;20032;-75
2024/01/24 05:54:30;;;;;;;13.68;6.57;;;;;;;4.32;56.59;99908.34;5056896;28;20468;-75
2024/01/24 05:56:57;;;;;;;11.52;6.22;;;;;;;4.44;56.02;99907.09;5057793;28;20016;-76
2024/01/24 05:59:22;;;;;;;13.93;7.30;;;;;;;4.61;55.53;99912.56;5058276;28;20435;-75
2024/01/24 06:01:48;;;;;;;12.25;6.65;;;;;;;4.77;55.38;99906.88;5041149;28;20023;-75
2024/01/24 06:04:13;;;;;;;12.23;6.78;;;;;;;5.02;54.79;99914.66;5057652;28;20493;-74
2024/01/24 06:06:40;;;;;;;11.95;6.65;;;;;;;5.20;53.71;99903.66;5041130;28;20475;-74
2024/01/24 06:09:05;;;;;;;10.52;6.75;;;;;;;5.51;53.27;99910.31;5057654;28;20047;-75
2024/01/24 06:11:31;;;;;;;12.60;6.55;;;;;;;5.93;51.90;99917.38;5058211;28;20548;-75
2024/01/24 06:13:56;;;;;;;11.48;6.68;;;;;;;6.45;50.64;99918.84;5057633;28;20024;-77
2024/01/24 06:16:22;;;;;;;10.82;6.32;;;;;;;7.02;49.89;99911.31;5057659;28;20060;-80
2024/01/24 06:18:47;;;;;;;10.25;6.97;;;;;;;7.53;48.41;99903.91;5074406;28;20062;-79
2024/01/24 06:21:13;;;;;;;10.05;6.47;;;;;;;8.13;47.06;99909.78;5041428;28;20479;-79
2024/01/24 06:23:39;;;;;;;10.70;6.63;;;;;;;8.74;45.73;99909.50;5074324;28;20551;-79
2024/01/24 06:26:04;;;;;;;13.63;6.50;;;;;;;9.45;44.65;99916.31;5057671;28;20475;-79
2024/01/24 06:28:30;;;;;;;10.57;6.15;;;;;;;10.09;42.56;99910.22;5040901;28;20062;-80
2024/01/24 06:30:55;;;;;;;11.30;6.47;;;;;;;10.86;41.51;99916.31;5040854;28;20028;-80
2024/01/24 06:33:21;;;;;;;9.60;6.20;;;;;;;11.72;39.94;99920.75;5040543;28;20047;-80
2024/01/24 06:35:47;;;;;;;11.10;6.68;;;;;;;12.54;37.96;99914.72;5057326;28;20028;-80
2024/01/24 06:38:14;;;;;;;10.52;6.55;;;;;;;13.43;35.99;99915.81;5057857;28;20024;-77
2024/01/24 06:40:40;;;;;;;11.77;6.18;;;;;;;14.23;34.57;99910.13;5059026;28;20111;-78
2024/01/24 06:43:05;;;;;;;8.85;5.90;;;;;;;15.16;32.83;99928.63;5057191;28;20131;-80
2024/01/24 06:45:31;;;;;;;11.73;6.38;;;;;;;15.98;31.41;99921.47;5057416;28;20039;-79
2024/01/24 06:47:57;;;;;;;10.07;6.47;;;;;;;16.88;29.74;99936.97;5057355;28;20043;-79
2024/01/24 06:50:24;;;;;;;10.35;6.38;;;;;;;17.68;28.25;99929.34;5057553;28;20056;-78
2024/01/24 06:52:49;;;;;;;11.88;6.45;;;;;;;18.62;26.87;99929.78;5057739;28;20032;-79
2024/01/24 06:55:16;;;;;;;9.43;6.55;;;;;;;19.49;25.64;99937.72;5040673;28;20490;-78
2024/01/24 06:57:41;;;;;;;14.75;7.05;;;;;;;20.29;24.36;99937.16;5092191;28;20092;-78
2024/01/24 07:00:08;;;;;;;11.38;7.65;;;;;;;20.98;23.27;99927.66;5073365;28;20044;-79
2024/01/24 07:02:34;;;;;;;9.38;7.20;;;;;;;21.66;22.73;99918.09;5040608;28;20549;-79
2024/01/24 07:05:02;;;;;;;16.95;8.18;;;;;;;22.22;21.96;99924.59;5059607;28;20050;-78
2024/01/24 07:07:27;;;;;;;15.63;8.00;;;;;;;22.66;21.41;99912.00;5061485;28;20399;-79
2024/01/24 07:09:53;;;;;;;12.68;6.85;;;;;;;23.09;20.69;99916.16;5044409;28;20079;-79
2024/01/24 07:12:20;;;;;;;13.50;7.03;;;;;;;23.40;20.31;99911.91;5044482;28;20487;-77
2024/01/24 07:14:45;;;;;;;10.27;6.50;;;;;;;23.56;19.96;99932.34;5078150;28;20036;-77
2024/01/24 07:17:11;;;;;;;13.07;7.10;;;;;;;23.57;20.01;99916.19;5060700;28;20036;-76
2024/01/24 07:19:36;;;;;;;11.60;6.80;;;;;;;23.38;20.05;99920.06;5077745;28;20093;-77
2024/01/24 07:22:02;;;;;;;9.65;6.65;;;;;;;23.05;20.15;99917.44;5060965;28;20093;-77
2024/01/24 07:24:28;;;;;;;10.77;7.22;;;;;;;22.71;20.76;99893.72;5044261;28;20097;-78
2024/01/24 07:26:53;;;;;;;11.75;7.65;;;;;;;22.52;21.15;99900.22;5060612;28;20028;-79
2024/01/24 07:29:20;;;;;;;11.75;7.53;;;;;;;22.22;21.21;99900.66;5060667;28;20071;-78
2024/01/24 07:31:46;;;;;;;10.55;6.63;;;;;;;22.18;21.54;99907.28;5044417;28;20119;-77
2024/01/24 07:34:11;;;;;;;11.48;7.15;;;;;;;22.08;21.18;99901.28;5077393;28;20487;-78
2024/01/24 07:36:37;;;;;;;11.30;6.50;;;;;;;22.08;21.55;99905.78;5043579;28;20036;-76
2024/01/24 07:39:04;;;;;;;9.98;6.25;;;;;;;22.00;21.59;99914.56;5060728;28;20039;-76
2024/01/24 07:41:30;;;;;;;12.93;7.00;;;;;;;21.94;21.77;99915.22;5060809;28;20086;-77
2024/01/24 07:43:56;;;;;;;10.15;6.90;;;;;;;21.83;21.57;99926.97;5044081;28;20028;-78
2024/01/24 07:46:24;;;;;;;13.23;8.77;;;;;;;21.77;21.83;99917.81;5043864;28;20640;-78
2024/01/24 07:48:49;;;;;;;;;;;;;;;21.76;22.00;99923.28;5044816;28;20048;-79
2024/01/24 07:51:15;;;;;;;12.77;8.95;;;;;;;21.79;21.91;99923.81;5060483;28;20302;-81
2024/01/24 07:53:42;;;;;;;11.85;8.60;;;;;;;21.85;21.75;99930.28;5061308;28;20085;-78
2024/01/24 07:56:07;;;;;;;13.25;9.13;;;;;;;21.94;21.58;99928.50;5044054;28;20079;-80
2024/01/24 07:58:33;;;;;;;17.65;10.18;;;;;;;21.98;21.48;99914.75;5077235;28;20433;-77
2024/01/24 08:00:58;;;;;;;13.10;9.25;;;;;;;22.11;21.27;99926.75;5060349;28;20406;-78
2024/01/24 08:03:24;;;;;;;14.70;9.48;;;;;;;22.20;21.25;99917.75;5077107;28;20032;-77
2024/01/24 08:05:49;;;;;;;18.10;10.52;;;;;;;22.31;21.12;99925.47;5043612;28;20051;-77
2024/01/24 08:08:15;;;;;;;18.02;11.10;;;;;;;22.37;21.21;99922.13;5059909;28;20059;-79
2024/01/24 08:10:40;;;;;;;18.17;11.60;;;;;;;22.53;21.11;99936.44;5094716;28;20056;-78
2024/01/24 08:13:06;;;;;;;24.42;11.95;;;;;;;22.58;21.14;99928.78;5076958;28;20062;-78
2024/01/24 08:15:32;;;;;;;23.85;13.10;;;;;;;22.72;20.67;99929.97;5060431;28;20089;-80
2024/01/24 08:17:57;;;;;;;21.15;14.27;;;;;;;22.87;20.71;99927.47;5043541;28;20063;-77
2024/01/24 08:20:23;;;;;;;29.10;16.00;;;;;;;22.99;20.50;99931.44;5059900;28;20051;-77
2024/01/24 08:22:49;;;;;;;27.15;17.05;;;;;;;23.07;20.37;99919.94;5060711;28;20020;-77
2024/01/24 08:25:14;;;;;;;30.77;17.95;;;;;;;23.10;20.36;99923.16;5094875;28;20032;-79
2024/01/24 08:27:40;;;;;;;27.77;17.20;;;;;;;23.17;20.25;99928.63;5076478;28;20154;-79
2024/01/24 08:30:06;;;;;;;38.83;18.58;;;;;;;23.19;20.29;99923.13;5059899;28;20074;-77
2024/01/24 08:32:32;;;;;;;30.60;18.55;;;;;;;23.25;20.01;99925.13;5043291;28;20463;-77
2024/01/24 08:34:57;;;;;;;36.50;19.85;;;;;;;23.33;19.97;99921.59;5076435;28;20035;-78
2024/01/24 08:37:22;;;;;;;34.10;20.08;;;;;;;23.29;19.73;99927.28;5060128;28;20429;-77
2024/01/24 08:39:49;;;;;;;40.80;21.95;;;;;;;23.30;20.00;99928.91;5043281;28;20090;-79
2024/01/24 08:42:14;;;;;;;43.58;22.08;;;;;;;23.39;19.98;99926.22;5060826;28;20495;-76
2024/01/24 08:44:40;;;;;;;36.03;21.88;;;;;;;23.55;20.21;99936.84;5059710;28;20043;-79
2024/01/24 08:47:05;;;;;;;39.03;21.02;;;;;;;23.65;19.84;99937.47;5042974;28;20024;-77
2024/01/24 08:49:31;;;;;;;35.25;19.35;;;;;;;23.69;19.74;99932.63;5076473;28;20048;-78
2024/01/24 08:51:57;;;;;;;35.33;18.80;;;;;;;23.73;19.95;99933.09;5042996;28;20384;-78
2024/01/24 08:54:22;;;;;;;30.20;18.35;;;;;;;23.81;19.75;99927.72;5076331;28;20438;-78
2024/01/24 08:56:48;;;;;;;32.28;17.10;;;;;;;23.91;19.53;99923.06;5059540;28;20028;-76
2024/01/24 08:59:13;;;;;;;28.70;15.95;;;;;;;24.08;19.92;99936.28;5043060;28;20059;-77
2024/01/24 09:01:39;;;;;;;28.38;15.43;;;;;;;24.20;19.62;99927.72;5043084;28;20401;-78
2024/01/24 09:04:05;;;;;;;26.10;15.13;;;;;;;24.37;19.16;99920.44;5042782;28;20471;-81
2024/01/24 09:06:30;;;;;;;26.20;13.82;;;;;;;24.54;19.60;99922.97;5059242;28;20028;-79
2024/01/24 09:08:56;;;;;;;20.95;12.27;;;;;;;24.66;19.23;99926.09;5042473;28;20044;-80
2024/01/24 09:11:22;;;;;;;23.58;12.20;;;;;;;24.88;19.08;99921.72;5042164;28;20035;-78
2024/01/24 09:13:47;;;;;;;28.85;11.02;;;;;;;25.08;18.64;99912.16;5042363;28;20046;-78
2024/01/24 09:16:16;;;;;;;19.02;9.52;;;;;;;25.30;19.13;99909.63;5042069;28;20032;-77
2024/01/24 09:18:42;;;;;;;18.50;9.40;;;;;;;25.51;18.99;99908.03;5059313;28;20039;-76
2024/01/24 09:21:08;;;;;;;19.73;9.55;;;;;;;25.87;18.82;99899.22;5042052;28;20085;-80
2024/01/24 09:23:34;;;;;;;15.35;9.40;;;;;;;26.43;17.97;99906.63;5057884;28;20102;-76
2024/01/24 09:25:59;;;;;;;15.32;9.43;;;;;;;27.03;17.40;99909.81;5058605;28;20035;-80
2024/01/24 09:28:25;;;;;;;16.60;8.70;;;;;;;27.74;17.00;99898.84;5058545;28;20063;-78
2024/01/24 09:30:50;;;;;;;12.63;7.40;;;;;;;28.03;16.63;99893.41;5041849;28;20024;-79
2024/01/24 09:33:16;;;;;;;15.32;7.47;;;;;;;27.24;17.10;99896.31;5041539;28;20035;-77
2024/01/24 09:35:44;;;;;;;10.95;5.47;;;;;;;28.47;16.02;99898.19;5041693;28;20044;-77
2024/01/24 09:38:10;;;;;;;;;;;;;;;28.70;15.89;99896.97;5059667;28;20467;-78
2024/01/24 09:40:35;;;;;;;7.47;4.47;;;;;;;28.54;16.01;99903.56;5058709;28;19966;-79
2024/01/24 09:43:01;;;;;;;10.32;4.20;;;;;;;28.01;16.52;99904.34;5058677;28;20105;-79
2024/01/24 09:45:27;;;;;;;5.90;3.90;;;;;;;27.85;16.99;99884.03;5058491;28;20071;-80
2024/01/24 09:47:53;;;;;;;5.53;3.70;;;;;;;27.83;16.76;99891.44;5041729;28;20482;-78
2024/01/24 09:50:18;;;;;;;9.90;3.60;;;;;;;27.96;16.89;99893.38;5041679;28;20051;-77
2024/01/24 09:52:44;;;;;;;5.15;3.40;;;;;;;28.78;16.19;99898.63;5074606;28;20084;-78
2024/01/24 09:55:13;;;;;;;5.80;3.22;;;;;;;27.94;16.36;99892.72;5057998;28;20039;-79
2024/01/24 09:57:38;;;;;;;4.85;3.05;;;;;;;26.47;17.59;99890.00;5059090;28;20024;-78
2024/01/24 10:00:05;;;;;;;4.88;3.10;;;;;;;26.47;17.39;99881.97;5041342;28;20415;-77
2024/01/24 10:02:30;;;;;;;4.68;3.10;;;;;;;25.80;17.56;99861.72;5040714;28;20478;-77
2024/01/24 10:04:56;;;;;;;5.38;2.90;;;;;;;24.78;18.42;99879.25;5041313;28;20158;-78
2024/01/24 10:07:22;;;;;;;4.18;2.90;;;;;;;24.08;19.10;99869.63;5041322;28;20032;-79
2024/01/24 10:09:47;;;;;;;5.47;2.80;;;;;;;23.64;19.44;99868.31;5041579;28;20487;-78
2024/01/24 10:12:13;;;;;;;4.32;2.90;;;;;;;23.83;19.42;99864.41;5041136;28;20058;-78
2024/01/24 10:14:40;;;;;;;5.03;2.88;;;;;;;24.39;19.06;99866.88;5041086;28;20094;-77
2024/01/24 10:17:07;;;;;;;4.80;3.03;;;;;;;25.02;18.58;99847.97;5058124;28;20445;-77
2024/01/24 10:19:32;;;;;;;4.63;2.75;;;;;;;25.28;18.40;99844.84;5057717;28;20035;-78
2024/01/24 10:21:58;;;;;;;6.00;3.35;;;;;;;24.56;18.64;99833.75;5056822;28;20039;-78
2024/01/24 10:24:23;;;;;;;5.55;3.10;;;;;;;24.49;18.75;99838.09;5041041;28;20039;-77
2024/01/24 10:26:49;;;;;;;5.00;3.00;;;;;;;24.71;18.37;99831.06;5074516;28;20102;-76
2024/01/24 10:29:14;;;;;;;5.35;2.90;;;;;;;24.27;19.36;99833.63;5040966;28;20031;-76
2024/01/24 10:31:42;;;;;;;4.32;2.67;;;;;;;23.57;19.76;99822.91;5057270;28;20098;-77
2024/01/24 10:34:07;;;;;;;6.50;3.10;;;;;;;23.56;19.65;99815.94;5040818;28;20138;-79
2024/01/24 10:36:35;;;;;;;4.40;2.63;;;;;;;23.27;19.80;99811.22;5057663;28;20075;-77
2024/01/24 10:39:03;;;;;;;4.80;2.83;;;;;;;22.95;19.94;99805.00;5041965;28;20024;-76
2024/01/24 10:41:36;;;;;;;5.50;2.95;;;;;;;23.36;19.64;99812.03;5062352;28;20032;-76
2024/01/24 10:44:04;;;;;;;5.97;2.38;;;;;;;23.55;20.00;99806.25;5045215;28;20047;-78
2024/01/24 10:46:30;;;;;;;6.82;3.25;;;;;;;23.57;19.97;99790.09;5061898;28;20028;-77
2024/01/24 10:48:56;;;;;;;4.10;2.92;;;;;;;23.67;19.83;99783.53;5061856;28;20063;-76
2024/01/24 10:51:21;;;;;;;4.53;2.80;;;;;;;23.67;19.79;99796.00;5045126;28;20501;-76
2024/01/24 10:53:47;;;;;;;4.28;2.70;;;;;;;23.57;20.00;99787.44;5044887;28;20060;-76
2024/01/24 10:56:13;;;;;;;5.00;2.75;;;;;;;23.62;20.00;99798.38;5061372;28;20035;-77
2024/01/24 10:58:40;;;;;;;4.20;2.67;;;;;;;23.55;19.93;99784.13;5061644;28;20123;-77
2024/01/24 11:01:05;;;;;;;4.93;2.67;;;;;;;23.55;20.15;99790.28;5061780;28;20032;-78
2024/01/24 11:03:32;;;;;;;4.53;2.72;;;;;;;23.50;20.04;99784.66;5044655;28;20097;-77
2024/01/24 11:05:58;;;;;;;3.95;2.88;;;;;;;23.47;20.14;99777.81;5044787;28;20109;-78
2024/01/24 11:08:32;;;;;;;4.40;2.45;;;;;;;23.42;19.94;99779.34;5061031;28;20024;-77
2024/01/24 11:10:59;;;;;;;4.70;3.00;;;;;;;23.41;20.10;99778.53;5061322;28;20028;-80
2024/01/24 11:13:24;;;;;;;4.03;2.67;;;;;;;23.30;20.37;99771.75;5044651;28;20031;-78
2024/01/24 11:15:56;;;;;;;12.00;2.80;;;;;;;23.19;20.29;99772.13;5044328;28;20465;-77
2024/01/24 11:18:23;;;;;;;3.65;2.42;;;;;;;23.11;20.23;99769.53;5062232;28;20027;-78
2024/01/24 11:21:01;;;;;;;4.13;2.70;;;;;;;22.98;20.55;99769.19;5077885;28;20015;-78
2024/01/24 11:23:45;;;;;;;4.82;2.72;;;;;;;22.81;20.44;99771.91;5079030;28;20035;-77
2024/01/24 11:26:12;;;;;;;3.45;2.00;;;;;;;22.64;20.51;99759.66;5045204;28;20028;-76
2024/01/24 11:28:38;;;;;;;4.55;2.90;;;;;;;22.42;20.49;99761.22;5060879;28;20020;-79